createdAt,value
2023-10-09T00:00:26.960Z,17.95
2023-10-09T00:03:10.828Z,17.98
2023-10-09T00:05:55.524Z,17.88
2023-10-09T00:08:40.331Z,17.88
2023-10-09T00:11:28.288Z,18.02
2023-10-09T00:14:12.412Z,18.05
2023-10-09T00:17:06.604Z,17.93
2023-10-09T00:20:01.059Z,17.90
2023-10-09T00:22:46.986Z,17.86
2023-10-09T00:25:31.793Z,17.83
2023-10-09T00:28:16.352Z,17.73
2023-10-09T00:31:00.026Z,17.76
2023-10-09T00:33:45.066Z,17.61
2023-10-09T00:36:31.468Z,17.61
2023-10-09T00:39:19.496Z,17.56
2023-10-09T00:42:04.248Z,17.43
2023-10-09T00:44:49.566Z,17.36
2023-10-09T00:47:36.562Z,17.21
2023-10-09T00:50:23.140Z,17.20
2023-10-09T00:53:22.424Z,17.18
2023-10-09T00:56:20.806Z,17.26
2023-10-09T00:59:08.636Z,17.06
2023-10-09T01:01:58.474Z,17.09
2023-10-09T01:04:44.933Z,17.12
2023-10-09T01:07:33.079Z,17.07
2023-10-09T01:10:17.539Z,17.01
2023-10-09T01:13:00.936Z,16.94
2023-10-09T01:15:49.807Z,16.80
2023-10-09T01:18:39.024Z,16.82
2023-10-09T01:21:26.115Z,16.76
2023-10-09T01:24:12.142Z,16.74
2023-10-09T01:27:00.632Z,16.80
2023-10-09T01:29:44.974Z,16.88
2023-10-09T01:32:28.283Z,16.74
2023-10-09T01:35:21.812Z,16.55
2023-10-09T01:38:11.878Z,16.71
2023-10-09T01:41:04.127Z,16.56
2023-10-09T01:43:47.391Z,16.49
2023-10-09T01:46:34.913Z,16.44
2023-10-09T01:49:23.176Z,16.46
2023-10-09T01:52:10.142Z,16.47
2023-10-09T01:54:54.557Z,16.39
2023-10-09T01:57:40.831Z,16.26
2023-10-09T02:00:25.822Z,16.46
2023-10-09T02:03:14.011Z,16.28
2023-10-09T02:06:01.346Z,16.26
2023-10-09T02:08:50.973Z,16.17
2023-10-09T02:11:42.642Z,16.18
2023-10-09T02:14:28.838Z,16.15
2023-10-09T02:17:19.028Z,16.16
2023-10-09T02:20:17.775Z,15.96
2023-10-09T02:23:01.253Z,15.92
2023-10-09T02:25:45.324Z,15.78
2023-10-09T02:28:34.072Z,15.63
2023-10-09T02:31:24.523Z,15.61
2023-10-09T02:34:09.319Z,15.55
2023-10-09T02:36:59.160Z,15.49
2023-10-09T02:39:48.672Z,15.49
2023-10-09T02:42:32.456Z,15.50
2023-10-09T02:45:25.817Z,15.42
2023-10-09T02:48:12.379Z,15.32
2023-10-09T02:50:59.131Z,15.35
2023-10-09T02:53:42.493Z,15.30
2023-10-09T02:56:37.534Z,15.35
2023-10-09T02:59:23.222Z,15.19
2023-10-09T03:02:06.565Z,15.09
2023-10-09T03:04:51.935Z,14.99
2023-10-09T03:07:35.414Z,14.86
2023-10-09T03:10:18.925Z,14.96
2023-10-09T03:13:04.406Z,15.04
2023-10-09T03:15:49.630Z,15.04
2023-10-09T03:18:35.624Z,14.93
2023-10-09T03:21:20.258Z,14.86
2023-10-09T03:24:06.146Z,14.77
2023-10-09T03:26:49.519Z,14.65
2023-10-09T03:29:34.748Z,14.61
2023-10-09T03:32:18.228Z,14.54
2023-10-09T03:35:01.526Z,14.59
2023-10-09T03:37:46.062Z,14.36
2023-10-09T03:40:29.627Z,14.30
2023-10-09T03:43:13.188Z,14.31
2023-10-09T03:45:58.538Z,14.15
2023-10-09T03:48:44.571Z,14.04
2023-10-09T03:51:27.806Z,14.02
2023-10-09T03:54:14.606Z,14.06
2023-10-09T03:57:00.162Z,13.92
2023-10-09T03:59:43.751Z,13.79
2023-10-09T04:02:27.392Z,13.68
2023-10-09T04:05:10.904Z,13.65
2023-10-09T04:07:55.000Z,13.69
2023-10-09T04:10:54.990Z,13.58
2023-10-09T04:13:41.389Z,13.54
2023-10-09T04:16:52.336Z,13.42
2023-10-09T04:19:40.334Z,13.47
2023-10-09T04:22:28.122Z,13.46
2023-10-09T04:25:16.074Z,13.30
2023-10-09T04:28:11.173Z,13.33
2023-10-09T04:30:56.926Z,13.22
2023-10-09T04:33:55.433Z,13.17
2023-10-09T04:36:47.627Z,13.14
2023-10-09T04:39:47.781Z,13.19
2023-10-09T04:42:40.238Z,13.04
2023-10-09T04:45:41.958Z,13.06
2023-10-09T04:48:39.151Z,13.03
2023-10-09T04:51:35.957Z,13.17
2023-10-09T04:54:34.502Z,13.20
2023-10-09T04:57:19.358Z,13.17
2023-10-09T05:00:08.056Z,13.23
2023-10-09T05:02:56.275Z,13.18
2023-10-09T05:05:59.942Z,13.07
2023-10-09T05:08:47.384Z,13.17
2023-10-09T05:11:35.996Z,13.32
2023-10-09T05:14:28.021Z,13.31
2023-10-09T05:17:17.226Z,13.30
2023-10-09T05:20:15.685Z,13.34
2023-10-09T05:23:21.979Z,13.34
2023-10-09T05:26:25.414Z,13.28
2023-10-09T05:29:20.358Z,13.32
2023-10-09T05:32:07.040Z,13.39
2023-10-09T05:35:03.868Z,13.47
2023-10-09T05:37:56.551Z,13.61
2023-10-09T05:40:38.896Z,13.62
2023-10-09T05:43:40.532Z,13.53
2023-10-09T05:46:36.682Z,13.46
2023-10-09T05:49:21.437Z,13.63
2023-10-09T05:52:24.928Z,13.58
2023-10-09T05:55:41.755Z,13.69
2023-10-09T05:58:42.810Z,13.75
2023-10-09T06:01:43.341Z,13.88
2023-10-09T06:04:47.972Z,14.02
2023-10-09T06:07:50.780Z,13.99
2023-10-09T06:10:41.546Z,14.11
2023-10-09T06:13:47.835Z,14.21
2023-10-09T06:16:45.672Z,14.45
2023-10-09T06:19:29.911Z,14.65
2023-10-09T06:22:52.807Z,14.92
2023-10-09T06:25:40.551Z,15.13
2023-10-09T06:28:34.556Z,15.63
2023-10-09T06:31:47.921Z,16.70
2023-10-09T06:34:36.970Z,18.29
2023-10-09T06:37:20.721Z,18.84
2023-10-09T06:40:33.022Z,20.01
2023-10-09T06:43:18.718Z,22.10
2023-10-09T06:46:22.210Z,23.07
2023-10-09T06:49:30.489Z,24.60
2023-10-09T06:52:16.729Z,25.41
2023-10-09T06:55:12.194Z,26.24
2023-10-09T06:58:04.375Z,25.81
2023-10-09T07:01:15.835Z,26.88
2023-10-09T07:04:12.328Z,26.47
2023-10-09T07:06:58.145Z,26.40
2023-10-09T07:09:44.961Z,26.51
2023-10-09T07:12:29.141Z,26.40
2023-10-09T07:15:41.580Z,27.61
2023-10-09T07:18:42.215Z,28.14
2023-10-09T07:21:30.249Z,29.31
2023-10-09T07:24:18.739Z,29.18
2023-10-09T07:27:08.290Z,29.37
2023-10-09T07:29:51.812Z,29.71
2023-10-09T07:32:36.504Z,28.82
2023-10-09T07:35:42.128Z,29.68
2023-10-09T07:38:30.182Z,30.16
2023-10-09T07:41:30.551Z,29.75
2023-10-09T07:44:35.766Z,29.99
2023-10-09T07:47:41.342Z,30.47
2023-10-09T07:50:31.697Z,30.38
2023-10-09T07:53:19.390Z,30.64
2023-10-09T07:56:08.032Z,30.70
2023-10-09T07:58:51.172Z,30.76
2023-10-09T08:01:37.418Z,31.42
2023-10-09T08:04:38.753Z,31.78
2023-10-09T08:08:03.049Z,30.91
2023-10-09T08:10:46.967Z,30.32
2023-10-09T08:13:49.878Z,31.98
2023-10-09T08:16:39.044Z,32.29
2023-10-09T08:19:33.779Z,31.09
2023-10-09T08:22:39.764Z,30.97
2023-10-09T08:25:33.197Z,30.69
2023-10-09T08:28:41.091Z,32.08
2023-10-09T08:31:46.263Z,31.80
2023-10-09T08:37:14.784Z,31.81
2023-10-09T08:39:58.006Z,32.07
2023-10-09T08:42:42.469Z,32.58
2023-10-09T08:45:28.853Z,31.79
2023-10-09T08:48:17.076Z,31.77
2023-10-09T08:51:01.414Z,31.42
2023-10-09T08:53:47.124Z,31.31
2023-10-09T08:56:30.572Z,31.67
2023-10-09T08:59:15.607Z,31.85
2023-10-09T09:02:01.217Z,31.76
2023-10-09T09:04:47.016Z,32.03
2023-10-09T09:07:33.001Z,31.98
2023-10-09T09:10:21.910Z,31.55
2023-10-09T09:13:07.017Z,31.93
2023-10-09T09:15:54.465Z,31.44
2023-10-09T09:18:53.094Z,30.78
2023-10-09T09:21:39.863Z,30.96
2023-10-09T09:24:32.106Z,30.08
2023-10-09T09:27:19.705Z,28.51
2023-10-09T09:30:08.866Z,27.09
2023-10-09T09:33:13.812Z,26.26
2023-10-09T09:36:00.550Z,26.38
2023-10-09T09:38:49.280Z,27.70
2023-10-09T09:41:35.053Z,28.86
2023-10-09T09:44:19.555Z,29.81
2023-10-09T09:47:03.048Z,30.15
2023-10-09T09:49:50.550Z,31.07
2023-10-09T09:52:40.161Z,31.60
2023-10-09T09:55:32.255Z,31.67
2023-10-09T09:58:21.660Z,31.71
2023-10-09T10:01:17.203Z,32.56
2023-10-09T10:04:05.427Z,31.28
2023-10-09T10:06:51.353Z,32.18
2023-10-09T10:09:40.704Z,32.53
2023-10-09T10:13:05.189Z,32.16
2023-10-09T10:16:03.609Z,31.11
2023-10-09T10:19:01.169Z,31.55
2023-10-09T10:21:50.150Z,31.76
2023-10-09T10:24:55.648Z,30.93
2023-10-09T10:27:46.291Z,31.54
2023-10-09T10:30:44.662Z,32.18
2023-10-09T10:33:28.800Z,31.89
2023-10-09T10:36:16.943Z,31.96
2023-10-09T10:39:08.503Z,31.84
2023-10-09T10:42:02.051Z,31.24
2023-10-09T10:44:46.268Z,31.22
2023-10-09T10:47:36.224Z,31.41
2023-10-09T10:50:36.896Z,31.91
2023-10-09T10:53:20.987Z,31.52
2023-10-09T10:56:19.034Z,32.71
2023-10-09T10:59:14.280Z,31.96
2023-10-09T11:02:15.026Z,30.86
2023-10-09T11:05:00.304Z,31.34
2023-10-09T11:07:43.847Z,31.29
2023-10-09T11:10:33.297Z,31.38
2023-10-09T11:13:34.472Z,31.75
2023-10-09T11:16:33.837Z,31.35
2023-10-09T11:19:30.454Z,30.93
2023-10-09T11:22:37.555Z,30.90
2023-10-09T11:25:20.029Z,30.43
2023-10-09T11:28:24.132Z,28.99
2023-10-09T11:31:12.501Z,27.31
2023-10-09T11:33:56.441Z,26.66
2023-10-09T11:36:39.942Z,26.03
2023-10-09T11:39:32.808Z,25.28
2023-10-09T11:42:31.388Z,24.74
2023-10-09T11:45:25.380Z,24.31
2023-10-09T11:48:28.942Z,23.90
2023-10-09T11:51:21.151Z,23.81
2023-10-09T11:54:04.278Z,23.26
2023-10-09T11:56:47.485Z,23.26
2023-10-09T11:59:35.539Z,23.21
2023-10-09T12:02:19.075Z,23.04
2023-10-09T12:05:02.305Z,22.96
2023-10-09T12:07:47.507Z,22.57
2023-10-09T12:10:31.204Z,22.43
2023-10-09T12:13:17.027Z,22.50
2023-10-09T12:16:00.215Z,22.43
2023-10-09T12:18:49.454Z,22.43
2023-10-09T12:21:32.745Z,22.28
2023-10-09T12:24:20.298Z,22.17
2023-10-09T12:27:03.792Z,21.99
2023-10-09T12:32:47.313Z,22.06
2023-10-09T12:35:35.731Z,21.99
2023-10-09T12:38:23.939Z,21.91
2023-10-09T12:41:21.051Z,21.98
2023-10-09T12:44:06.039Z,21.81
2023-10-09T12:46:54.427Z,21.92
2023-10-09T12:49:39.594Z,21.83
2023-10-09T12:52:30.805Z,21.73
2023-10-09T12:55:21.771Z,21.63
2023-10-09T12:58:07.554Z,21.70
2023-10-09T13:00:51.121Z,21.62
2023-10-09T13:03:34.310Z,21.58
2023-10-09T13:06:25.326Z,21.59
2023-10-09T13:09:11.768Z,21.55
2023-10-09T13:11:55.303Z,21.42
2023-10-09T13:14:42.687Z,21.32
2023-10-09T13:17:28.299Z,21.25
2023-10-09T13:20:15.099Z,21.22
2023-10-09T13:22:58.977Z,21.23
2023-10-09T13:25:42.334Z,21.30
2023-10-09T13:28:25.385Z,21.25
2023-10-09T13:31:12.271Z,21.33
2023-10-09T13:33:56.749Z,21.26
2023-10-09T13:36:39.944Z,21.21
2023-10-09T13:39:25.060Z,21.17
2023-10-09T13:42:09.246Z,21.03
2023-10-09T13:44:54.951Z,20.95
2023-10-09T13:47:39.482Z,20.96
2023-10-09T13:50:23.297Z,20.95
2023-10-09T13:53:11.835Z,20.97
2023-10-09T13:55:57.121Z,20.98
2023-10-09T13:58:42.317Z,20.92
2023-10-09T14:04:20.536Z,20.84
2023-10-09T14:07:06.939Z,20.81
2023-10-09T14:10:10.766Z,20.80
2023-10-09T14:12:55.585Z,20.76
2023-10-09T14:15:40.487Z,20.69
2023-10-09T14:18:24.051Z,20.67
2023-10-09T14:21:17.346Z,20.58
2023-10-09T14:24:00.905Z,20.54
2023-10-09T14:26:46.410Z,20.58
2023-10-09T14:29:29.785Z,20.55
2023-10-09T14:32:14.579Z,20.50
2023-10-09T14:35:02.181Z,20.47
2023-10-09T14:37:47.471Z,20.41
2023-10-09T14:40:33.044Z,20.34
2023-10-09T14:43:21.414Z,20.23
2023-10-09T14:46:12.132Z,20.20
2023-10-09T14:48:55.303Z,20.09
2023-10-09T14:51:38.704Z,20.07
2023-10-09T14:54:23.366Z,20.09
2023-10-09T14:57:07.364Z,20.09
2023-10-09T14:59:50.732Z,20.07
2023-10-09T15:02:34.122Z,20.14
2023-10-09T15:05:17.468Z,20.05
2023-10-09T15:08:02.012Z,19.98
2023-10-09T15:10:50.356Z,19.95
2023-10-09T15:13:33.467Z,19.91
2023-10-09T15:16:16.976Z,19.87
2023-10-09T15:19:03.320Z,19.85
2023-10-09T15:21:46.742Z,19.73
2023-10-09T15:24:31.386Z,19.59
2023-10-09T15:27:17.010Z,19.47
2023-10-09T15:30:00.102Z,19.40
2023-10-09T15:32:44.753Z,19.35
2023-10-09T15:35:29.946Z,19.26
2023-10-09T15:38:14.782Z,19.21
2023-10-09T15:40:57.929Z,19.15
2023-10-09T15:43:42.834Z,19.08
2023-10-09T15:46:26.989Z,19.00
2023-10-09T15:49:11.134Z,18.92
2023-10-09T15:51:54.323Z,18.84
2023-10-09T15:54:38.120Z,18.70
2023-10-09T15:57:23.016Z,18.60
2023-10-09T16:00:14.915Z,18.49
2023-10-09T16:02:58.647Z,18.42
2023-10-09T16:05:42.040Z,18.38
2023-10-09T16:08:25.149Z,18.34
2023-10-09T16:11:09.359Z,18.24
2023-10-09T16:13:54.785Z,18.09
2023-10-09T16:16:42.772Z,18.03
2023-10-09T16:19:29.400Z,18.14
2023-10-09T16:22:14.295Z,18.03
2023-10-09T16:24:58.143Z,17.85
2023-10-09T16:27:47.975Z,17.62
2023-10-09T16:30:31.215Z,17.47
2023-10-09T16:33:17.368Z,17.42
2023-10-09T16:36:01.004Z,17.30
2023-10-09T16:38:44.897Z,17.29
2023-10-09T16:41:28.419Z,17.27
2023-10-09T16:44:11.610Z,17.19
2023-10-09T16:46:55.748Z,17.08
2023-10-09T16:49:40.580Z,17.08
2023-10-09T16:52:24.474Z,17.23
2023-10-09T16:55:10.542Z,17.14
2023-10-09T16:57:53.791Z,17.00
2023-10-09T17:00:40.297Z,16.94
2023-10-09T17:03:29.368Z,16.88
2023-10-09T17:09:09.830Z,16.67
2023-10-09T17:11:54.724Z,16.52
2023-10-09T17:14:38.515Z,16.29
2023-10-09T17:17:24.744Z,16.25
2023-10-09T17:20:11.887Z,16.15
2023-10-09T17:22:55.220Z,15.94
2023-10-09T17:25:45.681Z,16.00
2023-10-09T17:28:31.280Z,15.96
2023-10-09T17:31:14.863Z,15.76
2023-10-09T17:33:58.522Z,15.73
2023-10-09T17:36:41.838Z,15.72
2023-10-09T17:39:27.726Z,15.64
2023-10-09T17:42:12.395Z,15.66
2023-10-09T17:44:56.761Z,15.69
2023-10-09T17:47:40.026Z,15.73
2023-10-09T17:50:23.677Z,15.70
2023-10-09T17:53:08.254Z,15.53
2023-10-09T17:58:51.243Z,15.57
2023-10-09T18:01:36.774Z,15.48
2023-10-09T18:04:19.976Z,15.46
2023-10-09T18:07:05.555Z,15.38
2023-10-09T18:09:53.450Z,15.23
2023-10-09T18:12:37.856Z,15.21
2023-10-09T18:15:22.843Z,15.18
2023-10-09T18:18:10.857Z,14.98
2023-10-09T18:20:54.748Z,14.92
2023-10-09T18:23:45.665Z,14.84
2023-10-09T18:26:31.631Z,14.72
2023-10-09T18:29:15.611Z,14.72
2023-10-09T18:32:01.667Z,14.80
2023-10-09T18:34:44.842Z,14.81
2023-10-09T18:37:28.009Z,14.80
2023-10-09T18:40:13.463Z,14.83
2023-10-09T18:42:56.706Z,14.83
2023-10-09T18:45:41.539Z,14.71
2023-10-09T18:48:30.386Z,14.70
2023-10-09T18:51:18.890Z,14.86
2023-10-09T18:54:06.506Z,14.80
2023-10-09T18:56:49.809Z,14.73
2023-10-09T18:59:33.192Z,14.72
2023-10-09T19:02:19.368Z,14.78
2023-10-09T19:05:09.140Z,14.75
2023-10-09T19:07:52.627Z,14.70
2023-10-09T19:10:38.309Z,14.52
2023-10-09T19:13:22.804Z,14.40
2023-10-09T19:16:06.705Z,14.41
2023-10-09T19:18:49.965Z,14.29
2023-10-09T19:21:35.947Z,14.29
2023-10-09T19:24:21.114Z,14.10
2023-10-09T19:27:06.056Z,14.12
2023-10-09T19:29:49.234Z,14.16
2023-10-09T19:32:32.536Z,14.15
2023-10-09T19:35:17.412Z,14.07
2023-10-09T19:38:02.753Z,14.08
2023-10-09T19:40:53.462Z,14.11
2023-10-09T19:43:37.852Z,13.98
2023-10-09T19:46:21.495Z,13.92
2023-10-09T19:49:04.606Z,13.78
2023-10-09T19:51:48.535Z,13.79
2023-10-09T19:54:34.461Z,13.75
2023-10-09T19:57:18.663Z,13.68
2023-10-09T20:00:01.754Z,13.77
2023-10-09T20:02:44.960Z,13.79
2023-10-09T20:05:28.814Z,13.69
2023-10-09T20:08:12.633Z,13.45
2023-10-09T20:10:57.148Z,13.43
2023-10-09T20:13:40.746Z,13.31
2023-10-09T20:16:27.950Z,13.34
2023-10-09T20:19:11.448Z,13.25
2023-10-09T20:21:55.564Z,13.20
2023-10-09T20:24:38.829Z,13.26
2023-10-09T20:27:24.233Z,13.16
2023-10-09T20:30:12.520Z,13.13
2023-10-09T20:32:55.909Z,13.26
2023-10-09T20:35:41.039Z,13.11
2023-10-09T20:38:27.206Z,13.02
2023-10-09T20:41:11.312Z,13.03
2023-10-09T20:43:56.015Z,13.11
2023-10-09T20:46:40.159Z,13.13
2023-10-09T20:49:23.951Z,13.11
2023-10-09T20:52:07.262Z,13.10
2023-10-09T20:54:50.592Z,13.07
2023-10-09T20:57:33.721Z,13.05
2023-10-09T21:00:23.166Z,12.94
2023-10-09T21:03:08.783Z,12.94
2023-10-09T21:05:53.177Z,12.86
2023-10-09T21:08:37.024Z,12.76
2023-10-09T21:11:20.935Z,12.83
2023-10-09T21:14:06.003Z,12.94
2023-10-09T21:16:50.729Z,12.98
2023-10-09T21:19:34.024Z,12.93
2023-10-09T21:22:17.416Z,12.83
2023-10-09T21:25:01.721Z,12.82
2023-10-09T21:27:44.911Z,12.78
2023-10-09T21:30:28.099Z,12.85
2023-10-09T21:33:12.717Z,12.84
2023-10-09T21:35:58.841Z,12.90
2023-10-09T21:38:42.058Z,12.89
2023-10-09T21:41:27.333Z,13.00
2023-10-09T21:44:14.922Z,13.13
2023-10-09T21:46:58.878Z,13.06
2023-10-09T21:49:45.285Z,13.09
2023-10-09T21:52:28.600Z,13.19
2023-10-09T21:55:12.988Z,13.24
2023-10-09T21:57:56.476Z,13.23
2023-10-09T22:00:39.840Z,13.25
2023-10-09T22:03:26.549Z,13.30
2023-10-09T22:06:12.134Z,13.44
2023-10-09T22:08:57.585Z,13.44
2023-10-09T22:11:41.052Z,13.50
2023-10-09T22:14:25.220Z,13.52
2023-10-09T22:17:09.523Z,13.52
2023-10-09T22:19:55.188Z,13.50
2023-10-09T22:22:45.226Z,13.51
2023-10-09T22:25:31.424Z,13.64
2023-10-09T22:28:16.018Z,13.77
2023-10-09T22:31:04.666Z,13.70
2023-10-09T22:33:50.987Z,13.78
2023-10-09T22:36:53.033Z,13.92
2023-10-09T22:39:42.470Z,13.81
2023-10-09T22:42:25.605Z,13.85
2023-10-09T22:45:10.115Z,13.80
2023-10-09T22:47:58.198Z,13.83
2023-10-09T22:50:46.593Z,13.78
2023-10-09T22:53:39.192Z,13.80
2023-10-09T22:56:24.504Z,13.80
2023-10-09T22:59:21.402Z,13.99
2023-10-09T23:02:06.052Z,14.10
2023-10-09T23:04:56.875Z,13.95
2023-10-09T23:07:42.896Z,13.91
2023-10-09T23:10:26.438Z,13.87
2023-10-09T23:13:16.683Z,13.85
2023-10-09T23:16:09.126Z,13.94
2023-10-09T23:19:06.442Z,13.84
2023-10-09T23:22:07.332Z,13.82
2023-10-09T23:24:55.032Z,13.89
2023-10-09T23:27:50.042Z,14.00
2023-10-09T23:30:37.948Z,13.81
2023-10-09T23:33:22.629Z,13.75
2023-10-09T23:36:06.283Z,13.87
2023-10-09T23:39:10.987Z,13.81
2023-10-09T23:41:59.996Z,13.61
2023-10-09T23:44:43.983Z,13.57
2023-10-09T23:47:33.210Z,13.59
2023-10-09T23:50:17.460Z,13.62
2023-10-09T23:53:03.526Z,13.54
2023-10-09T23:55:53.000Z,13.51
2023-10-09T23:58:36.732Z,13.52
